Cleveland, Ohio
Traffic Map
Current Weather Conditions
Cleveland, Ohio
Clear
Clear
-12°
Feels Like: -12°
Wind Chill: -12° Ceiling: Unl
Heat Index: -12° Visibility: 10mi
Dew Point: -14° Wind: 3mph
Humidity: 84% Direction: 220° (SW)
Pressure: 30.25in Gusts: 0mph
Raw Report DataKBKL 280853Z 22003KT 10SM CLR M12/M14 A3025 RMK AO2 SLP255 T11221144 51019
Traffic Incident Summary
Active as of:
Severity:
Category:
InformationThere was an issue retrieving the traffic information for this location. Please try a different location or try again shortly.
Advertisements
Track Severe Weather on mobile